sensor_id;sensor_type;location;lat;lon;timestamp;P1;durP1;ratioP1;P2;durP2;ratioP2
54831;SDS011;40730;53.068;6.572;2023-03-12T00:02:16;13.38;;;5.93;;
54831;SDS011;40730;53.068;6.572;2023-03-12T00:04:42;14.27;;;6.40;;
54831;SDS011;40730;53.068;6.572;2023-03-12T00:07:07;11.13;;;6.10;;
54831;SDS011;40730;53.068;6.572;2023-03-12T00:09:34;9.65;;;5.80;;
54831;SDS011;40730;53.068;6.572;2023-03-12T00:12:00;10.35;;;5.60;;
54831;SDS011;40730;53.068;6.572;2023-03-12T00:14:26;10.82;;;5.28;;
54831;SDS011;40730;53.068;6.572;2023-03-12T00:16:52;12.90;;;6.70;;
54831;SDS011;40730;53.068;6.572;2023-03-12T00:19:17;12.32;;;6.40;;
54831;SDS011;40730;53.068;6.572;2023-03-12T00:21:43;11.57;;;6.25;;
54831;SDS011;40730;53.068;6.572;2023-03-12T00:24:08;11.32;;;6.55;;
54831;SDS011;40730;53.068;6.572;2023-03-12T00:26:34;10.25;;;6.07;;
54831;SDS011;40730;53.068;6.572;2023-03-12T00:29:00;8.90;;;5.68;;
54831;SDS011;40730;53.068;6.572;2023-03-12T00:31:26;9.23;;;5.20;;
54831;SDS011;40730;53.068;6.572;2023-03-12T00:33:55;11.52;;;5.72;;
54831;SDS011;40730;53.068;6.572;2023-03-12T00:36:22;11.10;;;5.32;;
54831;SDS011;40730;53.068;6.572;2023-03-12T00:38:50;9.65;;;5.75;;
54831;SDS011;40730;53.068;6.572;2023-03-12T00:41:16;11.93;;;6.30;;
54831;SDS011;40730;53.068;6.572;2023-03-12T00:43:44;14.77;;;8.25;;
54831;SDS011;40730;53.068;6.572;2023-03-12T00:46:10;12.35;;;7.20;;
54831;SDS011;40730;53.068;6.572;2023-03-12T00:48:36;11.02;;;5.57;;
54831;SDS011;40730;53.068;6.572;2023-03-12T00:51:03;13.18;;;6.20;;
54831;SDS011;40730;53.068;6.572;2023-03-12T00:53:29;11.35;;;6.20;;
54831;SDS011;40730;53.068;6.572;2023-03-12T00:55:54;15.02;;;7.13;;
54831;SDS011;40730;53.068;6.572;2023-03-12T00:58:20;13.20;;;6.60;;
54831;SDS011;40730;53.068;6.572;2023-03-12T01:00:46;21.55;;;7.22;;
54831;SDS011;40730;53.068;6.572;2023-03-12T01:03:11;12.93;;;6.65;;
54831;SDS011;40730;53.068;6.572;2023-03-12T01:05:37;15.38;;;7.55;;
54831;SDS011;40730;53.068;6.572;2023-03-12T01:08:05;11.27;;;7.38;;
54831;SDS011;40730;53.068;6.572;2023-03-12T01:10:31;16.15;;;8.02;;
54831;SDS011;40730;53.068;6.572;2023-03-12T01:12:58;11.75;;;6.30;;
54831;SDS011;40730;53.068;6.572;2023-03-12T01:15:23;13.75;;;7.10;;
54831;SDS011;40730;53.068;6.572;2023-03-12T01:17:49;13.68;;;7.43;;
54831;SDS011;40730;53.068;6.572;2023-03-12T01:20:15;13.15;;;7.88;;
54831;SDS011;40730;53.068;6.572;2023-03-12T01:22:41;16.27;;;7.80;;
54831;SDS011;40730;53.068;6.572;2023-03-12T01:25:08;11.93;;;7.43;;
54831;SDS011;40730;53.068;6.572;2023-03-12T01:27:34;13.85;;;7.70;;
54831;SDS011;40730;53.068;6.572;2023-03-12T01:30:00;13.48;;;7.55;;
54831;SDS011;40730;53.068;6.572;2023-03-12T01:32:26;11.90;;;7.63;;
54831;SDS011;40730;53.068;6.572;2023-03-12T01:34:51;14.50;;;6.90;;
54831;SDS011;40730;53.068;6.572;2023-03-12T01:37:17;14.93;;;7.15;;
54831;SDS011;40730;53.068;6.572;2023-03-12T01:39:43;13.35;;;7.72;;
54831;SDS011;40730;53.068;6.572;2023-03-12T01:42:08;10.23;;;6.80;;
54831;SDS011;40730;53.068;6.572;2023-03-12T01:44:50;19.75;;;7.68;;
54831;SDS011;40730;53.068;6.572;2023-03-12T01:47:18;15.63;;;8.63;;
54831;SDS011;40730;53.068;6.572;2023-03-12T01:49:44;17.05;;;9.55;;
54831;SDS011;40730;53.068;6.572;2023-03-12T01:52:12;14.73;;;8.20;;
54831;SDS011;40730;53.068;6.572;2023-03-12T01:57:15;16.73;;;7.70;;
54831;SDS011;40730;53.068;6.572;2023-03-12T01:59:49;14.00;;;8.20;;
54831;SDS011;40730;53.068;6.572;2023-03-12T02:02:18;12.60;;;7.68;;
54831;SDS011;40730;53.068;6.572;2023-03-12T02:04:48;19.08;;;7.40;;
54831;SDS011;40730;53.068;6.572;2023-03-12T02:07:36;16.10;;;6.95;;
54831;SDS011;40730;53.068;6.572;2023-03-12T02:10:02;13.75;;;7.10;;
54831;SDS011;40730;53.068;6.572;2023-03-12T02:12:29;10.85;;;7.55;;
54831;SDS011;40730;53.068;6.572;2023-03-12T02:14:55;17.80;;;9.32;;
54831;SDS011;40730;53.068;6.572;2023-03-12T02:17:20;11.35;;;7.03;;
54831;SDS011;40730;53.068;6.572;2023-03-12T02:22:31;17.02;;;7.03;;
54831;SDS011;40730;53.068;6.572;2023-03-12T02:27:30;11.80;;;6.65;;
54831;SDS011;40730;53.068;6.572;2023-03-12T02:29:58;10.00;;;6.20;;
54831;SDS011;40730;53.068;6.572;2023-03-12T02:32:27;14.82;;;7.65;;
54831;SDS011;40730;53.068;6.572;2023-03-12T02:34:58;11.40;;;5.97;;
54831;SDS011;40730;53.068;6.572;2023-03-12T02:37:24;11.52;;;6.10;;
54831;SDS011;40730;53.068;6.572;2023-03-12T02:40:23;9.55;;;5.22;;
54831;SDS011;40730;53.068;6.572;2023-03-12T02:42:51;9.70;;;4.97;;
54831;SDS011;40730;53.068;6.572;2023-03-12T02:45:18;12.20;;;6.03;;
54831;SDS011;40730;53.068;6.572;2023-03-12T02:47:44;7.95;;;5.03;;
54831;SDS011;40730;53.068;6.572;2023-03-12T02:50:10;8.40;;;4.55;;
54831;SDS011;40730;53.068;6.572;2023-03-12T02:52:36;9.18;;;5.95;;
54831;SDS011;40730;53.068;6.572;2023-03-12T02:55:02;7.18;;;3.92;;
54831;SDS011;40730;53.068;6.572;2023-03-12T02:57:29;11.85;;;4.50;;
54831;SDS011;40730;53.068;6.572;2023-03-12T02:59:54;8.55;;;4.15;;
54831;SDS011;40730;53.068;6.572;2023-03-12T03:02:20;11.20;;;4.07;;
54831;SDS011;40730;53.068;6.572;2023-03-12T03:04:45;6.97;;;3.35;;
54831;SDS011;40730;53.068;6.572;2023-03-12T03:07:11;7.88;;;4.10;;
54831;SDS011;40730;53.068;6.572;2023-03-12T03:09:37;6.78;;;3.92;;
54831;SDS011;40730;53.068;6.572;2023-03-12T03:12:02;8.93;;;3.40;;
54831;SDS011;40730;53.068;6.572;2023-03-12T03:14:28;6.25;;;3.00;;
54831;SDS011;40730;53.068;6.572;2023-03-12T03:16:54;6.50;;;3.50;;
54831;SDS011;40730;53.068;6.572;2023-03-12T03:19:19;6.78;;;2.88;;
54831;SDS011;40730;53.068;6.572;2023-03-12T03:21:45;6.85;;;2.85;;
54831;SDS011;40730;53.068;6.572;2023-03-12T03:24:11;8.52;;;3.08;;
54831;SDS011;40730;53.068;6.572;2023-03-12T03:26:36;5.78;;;3.05;;
54831;SDS011;40730;53.068;6.572;2023-03-12T03:29:02;8.32;;;2.97;;
54831;SDS011;40730;53.068;6.572;2023-03-12T03:31:28;5.05;;;2.40;;
54831;SDS011;40730;53.068;6.572;2023-03-12T03:33:53;7.15;;;2.60;;
54831;SDS011;40730;53.068;6.572;2023-03-12T03:36:19;8.40;;;2.83;;
54831;SDS011;40730;53.068;6.572;2023-03-12T03:38:47;9.75;;;3.20;;
54831;SDS011;40730;53.068;6.572;2023-03-12T03:41:17;6.40;;;2.60;;
54831;SDS011;40730;53.068;6.572;2023-03-12T03:43:44;13.93;;;3.00;;
54831;SDS011;40730;53.068;6.572;2023-03-12T03:46:11;6.72;;;2.38;;
54831;SDS011;40730;53.068;6.572;2023-03-12T03:48:38;12.43;;;3.38;;
54831;SDS011;40730;53.068;6.572;2023-03-12T03:51:04;10.02;;;2.90;;
54831;SDS011;40730;53.068;6.572;2023-03-12T03:53:31;5.22;;;2.40;;
54831;SDS011;40730;53.068;6.572;2023-03-12T03:56:03;10.57;;;2.45;;
54831;SDS011;40730;53.068;6.572;2023-03-12T03:58:30;6.25;;;2.75;;
54831;SDS011;40730;53.068;6.572;2023-03-12T04:00:55;6.05;;;2.72;;
54831;SDS011;40730;53.068;6.572;2023-03-12T04:03:21;7.53;;;3.60;;
54831;SDS011;40730;53.068;6.572;2023-03-12T04:05:52;7.45;;;3.08;;
54831;SDS011;40730;53.068;6.572;2023-03-12T04:08:18;8.73;;;3.08;;
54831;SDS011;40730;53.068;6.572;2023-03-12T04:10:44;5.55;;;2.97;;
54831;SDS011;40730;53.068;6.572;2023-03-12T04:13:09;4.88;;;2.45;;
54831;SDS011;40730;53.068;6.572;2023-03-12T04:15:35;6.00;;;3.17;;
54831;SDS011;40730;53.068;6.572;2023-03-12T04:18:00;9.95;;;2.38;;
54831;SDS011;40730;53.068;6.572;2023-03-12T04:20:26;5.78;;;2.60;;
54831;SDS011;40730;53.068;6.572;2023-03-12T04:22:52;11.63;;;2.75;;
54831;SDS011;40730;53.068;6.572;2023-03-12T04:25:17;4.50;;;2.55;;
54831;SDS011;40730;53.068;6.572;2023-03-12T04:27:43;6.85;;;2.55;;
54831;SDS011;40730;53.068;6.572;2023-03-12T04:30:08;8.98;;;4.50;;
54831;SDS011;40730;53.068;6.572;2023-03-12T04:32:34;4.68;;;2.80;;
54831;SDS011;40730;53.068;6.572;2023-03-12T04:35:00;7.10;;;2.92;;
54831;SDS011;40730;53.068;6.572;2023-03-12T04:37:26;7.50;;;2.22;;
54831;SDS011;40730;53.068;6.572;2023-03-12T04:39:51;8.35;;;2.95;;
54831;SDS011;40730;53.068;6.572;2023-03-12T04:42:17;12.25;;;2.65;;
54831;SDS011;40730;53.068;6.572;2023-03-12T04:44:42;4.32;;;3.00;;
54831;SDS011;40730;53.068;6.572;2023-03-12T04:47:08;4.65;;;2.53;;
54831;SDS011;40730;53.068;6.572;2023-03-12T04:49:34;6.10;;;2.92;;
54831;SDS011;40730;53.068;6.572;2023-03-12T04:52:03;5.78;;;2.47;;
54831;SDS011;40730;53.068;6.572;2023-03-12T04:54:28;8.18;;;3.00;;
54831;SDS011;40730;53.068;6.572;2023-03-12T04:56:55;5.55;;;2.42;;
54831;SDS011;40730;53.068;6.572;2023-03-12T04:59:21;7.25;;;2.50;;
54831;SDS011;40730;53.068;6.572;2023-03-12T05:01:46;5.43;;;2.40;;
54831;SDS011;40730;53.068;6.572;2023-03-12T05:04:12;5.05;;;2.20;;
54831;SDS011;40730;53.068;6.572;2023-03-12T05:06:38;3.70;;;2.20;;
54831;SDS011;40730;53.068;6.572;2023-03-12T05:09:03;5.55;;;2.60;;
54831;SDS011;40730;53.068;6.572;2023-03-12T05:11:29;4.57;;;2.22;;
54831;SDS011;40730;53.068;6.572;2023-03-12T05:13:54;5.95;;;2.45;;
54831;SDS011;40730;53.068;6.572;2023-03-12T05:16:20;6.72;;;2.63;;
54831;SDS011;40730;53.068;6.572;2023-03-12T05:18:46;6.72;;;2.55;;
54831;SDS011;40730;53.068;6.572;2023-03-12T05:21:13;8.00;;;2.67;;
54831;SDS011;40730;53.068;6.572;2023-03-12T05:23:40;6.72;;;2.15;;
54831;SDS011;40730;53.068;6.572;2023-03-12T05:26:17;5.40;;;1.98;;
54831;SDS011;40730;53.068;6.572;2023-03-12T05:28:45;6.53;;;2.17;;
54831;SDS011;40730;53.068;6.572;2023-03-12T05:31:10;4.97;;;1.98;;
54831;SDS011;40730;53.068;6.572;2023-03-12T05:33:37;7.13;;;2.47;;
54831;SDS011;40730;53.068;6.572;2023-03-12T05:36:02;5.68;;;2.33;;
54831;SDS011;40730;53.068;6.572;2023-03-12T05:38:28;8.63;;;2.55;;
54831;SDS011;40730;53.068;6.572;2023-03-12T05:40:55;6.32;;;2.80;;
54831;SDS011;40730;53.068;6.572;2023-03-12T05:43:23;4.30;;;2.45;;
54831;SDS011;40730;53.068;6.572;2023-03-12T05:45:49;4.03;;;1.83;;
54831;SDS011;40730;53.068;6.572;2023-03-12T05:48:14;5.47;;;2.60;;
54831;SDS011;40730;53.068;6.572;2023-03-12T05:50:40;3.55;;;2.55;;
54831;SDS011;40730;53.068;6.572;2023-03-12T05:53:06;5.15;;;2.40;;
54831;SDS011;40730;53.068;6.572;2023-03-12T05:55:41;6.22;;;3.20;;
54831;SDS011;40730;53.068;6.572;2023-03-12T05:58:06;4.97;;;2.22;;
54831;SDS011;40730;53.068;6.572;2023-03-12T06:00:33;6.70;;;2.65;;
54831;SDS011;40730;53.068;6.572;2023-03-12T06:03:06;7.57;;;2.53;;
54831;SDS011;40730;53.068;6.572;2023-03-12T06:05:33;8.02;;;2.85;;
54831;SDS011;40730;53.068;6.572;2023-03-12T06:08:00;6.63;;;2.30;;
54831;SDS011;40730;53.068;6.572;2023-03-12T06:10:26;5.15;;;2.45;;
54831;SDS011;40730;53.068;6.572;2023-03-12T06:12:52;6.57;;;2.90;;
54831;SDS011;40730;53.068;6.572;2023-03-12T06:15:18;12.35;;;2.35;;
54831;SDS011;40730;53.068;6.572;2023-03-12T06:17:44;6.38;;;2.85;;
54831;SDS011;40730;53.068;6.572;2023-03-12T06:20:09;6.32;;;3.60;;
54831;SDS011;40730;53.068;6.572;2023-03-12T06:22:36;5.80;;;2.65;;
54831;SDS011;40730;53.068;6.572;2023-03-12T06:25:02;3.47;;;2.83;;
54831;SDS011;40730;53.068;6.572;2023-03-12T06:27:29;6.63;;;3.20;;
54831;SDS011;40730;53.068;6.572;2023-03-12T06:29:55;6.55;;;3.08;;
54831;SDS011;40730;53.068;6.572;2023-03-12T06:32:21;10.13;;;3.53;;
54831;SDS011;40730;53.068;6.572;2023-03-12T06:34:46;13.07;;;3.30;;
54831;SDS011;40730;53.068;6.572;2023-03-12T06:37:12;9.00;;;4.03;;
54831;SDS011;40730;53.068;6.572;2023-03-12T06:39:38;9.25;;;3.28;;
54831;SDS011;40730;53.068;6.572;2023-03-12T06:42:04;9.40;;;4.00;;
54831;SDS011;40730;53.068;6.572;2023-03-12T06:44:29;6.47;;;3.20;;
54831;SDS011;40730;53.068;6.572;2023-03-12T06:46:55;8.05;;;3.13;;
54831;SDS011;40730;53.068;6.572;2023-03-12T06:49:21;5.45;;;3.40;;
54831;SDS011;40730;53.068;6.572;2023-03-12T06:51:47;6.88;;;3.33;;
54831;SDS011;40730;53.068;6.572;2023-03-12T06:54:13;8.15;;;3.42;;
54831;SDS011;40730;53.068;6.572;2023-03-12T06:56:39;7.85;;;3.38;;
54831;SDS011;40730;53.068;6.572;2023-03-12T06:59:04;9.20;;;3.83;;
54831;SDS011;40730;53.068;6.572;2023-03-12T07:01:30;10.52;;;3.97;;
54831;SDS011;40730;53.068;6.572;2023-03-12T07:03:56;8.85;;;4.07;;
54831;SDS011;40730;53.068;6.572;2023-03-12T07:06:22;8.18;;;3.83;;
54831;SDS011;40730;53.068;6.572;2023-03-12T07:08:48;6.90;;;3.92;;
54831;SDS011;40730;53.068;6.572;2023-03-12T07:11:15;8.57;;;3.90;;
54831;SDS011;40730;53.068;6.572;2023-03-12T07:13:41;12.80;;;4.82;;
54831;SDS011;40730;53.068;6.572;2023-03-12T07:16:07;10.48;;;3.70;;
54831;SDS011;40730;53.068;6.572;2023-03-12T07:18:33;12.23;;;4.82;;
54831;SDS011;40730;53.068;6.572;2023-03-12T07:20:59;9.20;;;4.15;;
54831;SDS011;40730;53.068;6.572;2023-03-12T07:23:25;12.38;;;5.10;;
54831;SDS011;40730;53.068;6.572;2023-03-12T07:25:51;8.70;;;4.22;;
54831;SDS011;40730;53.068;6.572;2023-03-12T07:28:17;9.65;;;5.32;;
54831;SDS011;40730;53.068;6.572;2023-03-12T07:30:44;10.73;;;5.10;;
54831;SDS011;40730;53.068;6.572;2023-03-12T07:33:15;9.55;;;5.75;;
54831;SDS011;40730;53.068;6.572;2023-03-12T07:35:42;13.43;;;6.53;;
54831;SDS011;40730;53.068;6.572;2023-03-12T07:38:09;14.77;;;7.32;;
54831;SDS011;40730;53.068;6.572;2023-03-12T07:40:35;12.10;;;6.43;;
54831;SDS011;40730;53.068;6.572;2023-03-12T07:43:01;13.52;;;8.48;;
54831;SDS011;40730;53.068;6.572;2023-03-12T07:45:29;15.20;;;8.27;;
54831;SDS011;40730;53.068;6.572;2023-03-12T07:47:55;18.42;;;8.38;;
54831;SDS011;40730;53.068;6.572;2023-03-12T07:50:20;17.58;;;8.88;;
54831;SDS011;40730;53.068;6.572;2023-03-12T07:52:46;18.48;;;9.25;;
54831;SDS011;40730;53.068;6.572;2023-03-12T07:55:12;15.10;;;9.75;;
54831;SDS011;40730;53.068;6.572;2023-03-12T07:57:37;13.80;;;9.73;;
54831;SDS011;40730;53.068;6.572;2023-03-12T08:00:04;22.33;;;11.35;;
54831;SDS011;40730;53.068;6.572;2023-03-12T08:02:34;18.10;;;10.75;;
54831;SDS011;40730;53.068;6.572;2023-03-12T08:05:00;16.38;;;9.95;;
54831;SDS011;40730;53.068;6.572;2023-03-12T08:07:26;15.98;;;11.07;;
54831;SDS011;40730;53.068;6.572;2023-03-12T08:09:56;21.75;;;10.65;;
54831;SDS011;40730;53.068;6.572;2023-03-12T08:12:26;17.70;;;10.77;;
54831;SDS011;40730;53.068;6.572;2023-03-12T08:14:52;17.00;;;11.23;;
54831;SDS011;40730;53.068;6.572;2023-03-12T08:17:17;19.05;;;10.85;;
54831;SDS011;40730;53.068;6.572;2023-03-12T08:19:44;21.00;;;11.27;;
54831;SDS011;40730;53.068;6.572;2023-03-12T08:22:10;15.95;;;10.88;;
54831;SDS011;40730;53.068;6.572;2023-03-12T08:24:35;14.68;;;10.57;;
54831;SDS011;40730;53.068;6.572;2023-03-12T08:27:01;20.23;;;11.57;;
54831;SDS011;40730;53.068;6.572;2023-03-12T08:29:27;22.83;;;11.32;;
54831;SDS011;40730;53.068;6.572;2023-03-12T08:31:52;21.55;;;11.18;;
54831;SDS011;40730;53.068;6.572;2023-03-12T08:34:18;18.23;;;11.00;;
54831;SDS011;40730;53.068;6.572;2023-03-12T08:36:44;18.33;;;11.65;;
54831;SDS011;40730;53.068;6.572;2023-03-12T08:39:10;16.27;;;10.77;;
54831;SDS011;40730;53.068;6.572;2023-03-12T08:41:35;18.85;;;10.95;;
54831;SDS011;40730;53.068;6.572;2023-03-12T08:44:01;16.67;;;10.55;;
54831;SDS011;40730;53.068;6.572;2023-03-12T08:46:27;15.18;;;10.90;;
54831;SDS011;40730;53.068;6.572;2023-03-12T08:48:53;17.27;;;11.52;;
54831;SDS011;40730;53.068;6.572;2023-03-12T08:51:19;14.70;;;10.02;;
54831;SDS011;40730;53.068;6.572;2023-03-12T08:53:44;17.63;;;11.25;;
54831;SDS011;40730;53.068;6.572;2023-03-12T08:56:10;18.50;;;11.70;;
54831;SDS011;40730;53.068;6.572;2023-03-12T08:58:35;15.50;;;11.27;;
54831;SDS011;40730;53.068;6.572;2023-03-12T09:01:01;20.63;;;10.90;;
54831;SDS011;40730;53.068;6.572;2023-03-12T09:03:32;14.48;;;10.52;;
54831;SDS011;40730;53.068;6.572;2023-03-12T09:06:04;15.57;;;10.60;;
54831;SDS011;40730;53.068;6.572;2023-03-12T09:08:40;18.05;;;12.45;;
54831;SDS011;40730;53.068;6.572;2023-03-12T09:11:08;18.38;;;12.38;;
54831;SDS011;40730;53.068;6.572;2023-03-12T09:13:34;21.10;;;13.30;;
54831;SDS011;40730;53.068;6.572;2023-03-12T09:16:00;20.02;;;14.20;;
54831;SDS011;40730;53.068;6.572;2023-03-12T09:18:27;17.88;;;13.40;;
54831;SDS011;40730;53.068;6.572;2023-03-12T09:20:53;18.23;;;13.77;;
54831;SDS011;40730;53.068;6.572;2023-03-12T09:23:20;19.90;;;13.15;;
54831;SDS011;40730;53.068;6.572;2023-03-12T09:25:45;21.35;;;15.43;;
54831;SDS011;40730;53.068;6.572;2023-03-12T09:28:12;19.67;;;14.73;;
54831;SDS011;40730;53.068;6.572;2023-03-12T09:30:37;26.88;;;15.98;;
54831;SDS011;40730;53.068;6.572;2023-03-12T09:33:03;25.52;;;16.58;;
54831;SDS011;40730;53.068;6.572;2023-03-12T09:35:29;27.65;;;19.17;;
54831;SDS011;40730;53.068;6.572;2023-03-12T09:37:56;21.15;;;14.85;;
54831;SDS011;40730;53.068;6.572;2023-03-12T09:40:23;23.35;;;15.73;;
54831;SDS011;40730;53.068;6.572;2023-03-12T09:43:01;24.25;;;16.42;;
54831;SDS011;40730;53.068;6.572;2023-03-12T09:45:30;21.45;;;14.45;;
54831;SDS011;40730;53.068;6.572;2023-03-12T09:48:02;20.55;;;13.13;;
54831;SDS011;40730;53.068;6.572;2023-03-12T09:50:31;20.98;;;14.40;;
54831;SDS011;40730;53.068;6.572;2023-03-12T09:53:11;22.40;;;14.40;;
54831;SDS011;40730;53.068;6.572;2023-03-12T09:55:57;24.50;;;13.20;;
54831;SDS011;40730;53.068;6.572;2023-03-12T09:58:28;22.30;;;15.07;;
54831;SDS011;40730;53.068;6.572;2023-03-12T10:01:06;21.33;;;15.65;;
54831;SDS011;40730;53.068;6.572;2023-03-12T10:09:28;24.17;;;14.80;;
54831;SDS011;40730;53.068;6.572;2023-03-12T10:12:29;19.75;;;13.45;;
54831;SDS011;40730;53.068;6.572;2023-03-12T10:15:06;27.83;;;17.85;;
54831;SDS011;40730;53.068;6.572;2023-03-12T10:18:00;21.90;;;16.00;;
54831;SDS011;40730;53.068;6.572;2023-03-12T10:23:19;22.13;;;16.35;;
54831;SDS011;40730;53.068;6.572;2023-03-12T10:25:54;25.85;;;16.40;;
54831;SDS011;40730;53.068;6.572;2023-03-12T10:31:00;21.00;;;17.27;;
54831;SDS011;40730;53.068;6.572;2023-03-12T10:33:35;24.60;;;17.52;;
54831;SDS011;40730;53.068;6.572;2023-03-12T10:36:18;24.15;;;15.80;;
54831;SDS011;40730;53.068;6.572;2023-03-12T10:38:48;24.98;;;16.50;;
54831;SDS011;40730;53.068;6.572;2023-03-12T10:41:20;24.25;;;16.98;;
54831;SDS011;40730;53.068;6.572;2023-03-12T10:43:48;23.92;;;17.35;;
54831;SDS011;40730;53.068;6.572;2023-03-12T10:49:21;26.98;;;18.77;;
54831;SDS011;40730;53.068;6.572;2023-03-12T10:54:46;29.33;;;19.27;;
54831;SDS011;40730;53.068;6.572;2023-03-12T10:57:13;25.73;;;18.33;;
54831;SDS011;40730;53.068;6.572;2023-03-12T10:59:40;26.08;;;18.60;;
54831;SDS011;40730;53.068;6.572;2023-03-12T11:02:23;33.08;;;19.23;;
54831;SDS011;40730;53.068;6.572;2023-03-12T11:04:52;30.90;;;19.65;;
54831;SDS011;40730;53.068;6.572;2023-03-12T11:07:26;28.60;;;19.42;;
54831;SDS011;40730;53.068;6.572;2023-03-12T11:10:46;27.35;;;19.50;;
54831;SDS011;40730;53.068;6.572;2023-03-12T11:20:47;24.08;;;18.52;;
54831;SDS011;40730;53.068;6.572;2023-03-12T11:23:17;26.40;;;19.52;;
54831;SDS011;40730;53.068;6.572;2023-03-12T11:25:53;28.27;;;18.52;;
54831;SDS011;40730;53.068;6.572;2023-03-12T11:28:27;26.90;;;18.17;;
54831;SDS011;40730;53.068;6.572;2023-03-12T11:30:59;28.38;;;18.98;;
54831;SDS011;40730;53.068;6.572;2023-03-12T11:33:26;30.30;;;19.00;;
54831;SDS011;40730;53.068;6.572;2023-03-12T11:38:37;29.42;;;18.52;;
54831;SDS011;40730;53.068;6.572;2023-03-12T11:43:55;24.08;;;17.48;;
54831;SDS011;40730;53.068;6.572;2023-03-12T11:46:40;30.42;;;20.02;;
54831;SDS011;40730;53.068;6.572;2023-03-12T11:52:03;28.25;;;19.08;;
54831;SDS011;40730;53.068;6.572;2023-03-12T11:54:47;41.47;;;22.42;;
54831;SDS011;40730;53.068;6.572;2023-03-12T12:00:43;34.10;;;20.92;;
54831;SDS011;40730;53.068;6.572;2023-03-12T12:08:39;36.17;;;20.45;;
54831;SDS011;40730;53.068;6.572;2023-03-12T12:11:33;33.60;;;21.42;;
54831;SDS011;40730;53.068;6.572;2023-03-12T12:19:31;34.40;;;19.95;;
54831;SDS011;40730;53.068;6.572;2023-03-12T12:22:56;32.15;;;20.08;;
54831;SDS011;40730;53.068;6.572;2023-03-12T12:31:22;37.33;;;20.65;;
54831;SDS011;40730;53.068;6.572;2023-03-12T12:33:29;39.08;;;21.27;;
54831;SDS011;40730;53.068;6.572;2023-03-12T12:35:57;35.33;;;19.77;;
54831;SDS011;40730;53.068;6.572;2023-03-12T12:38:38;38.58;;;22.15;;
54831;SDS011;40730;53.068;6.572;2023-03-12T12:43:48;35.05;;;20.48;;
54831;SDS011;40730;53.068;6.572;2023-03-12T12:46:17;34.00;;;20.90;;
54831;SDS011;40730;53.068;6.572;2023-03-12T12:49:21;39.22;;;20.85;;
54831;SDS011;40730;53.068;6.572;2023-03-12T12:51:39;37.30;;;20.95;;
54831;SDS011;40730;53.068;6.572;2023-03-12T13:02:43;38.47;;;19.92;;
54831;SDS011;40730;53.068;6.572;2023-03-12T13:05:24;42.83;;;21.02;;
54831;SDS011;40730;53.068;6.572;2023-03-12T13:08:05;40.60;;;20.40;;
54831;SDS011;40730;53.068;6.572;2023-03-12T13:13:08;42.10;;;19.30;;
54831;SDS011;40730;53.068;6.572;2023-03-12T13:15:37;43.67;;;20.88;;
54831;SDS011;40730;53.068;6.572;2023-03-12T13:18:21;35.88;;;18.33;;
54831;SDS011;40730;53.068;6.572;2023-03-12T13:28:34;34.63;;;18.60;;
54831;SDS011;40730;53.068;6.572;2023-03-12T13:33:48;34.65;;;18.33;;
54831;SDS011;40730;53.068;6.572;2023-03-12T13:39:00;29.85;;;16.33;;
54831;SDS011;40730;53.068;6.572;2023-03-12T13:41:33;31.10;;;16.48;;
54831;SDS011;40730;53.068;6.572;2023-03-12T13:47:31;30.17;;;16.70;;
54831;SDS011;40730;53.068;6.572;2023-03-12T13:49:54;26.40;;;14.20;;
54831;SDS011;40730;53.068;6.572;2023-03-12T13:52:26;24.88;;;12.93;;
54831;SDS011;40730;53.068;6.572;2023-03-12T13:55:15;24.42;;;12.40;;
54831;SDS011;40730;53.068;6.572;2023-03-12T14:03:15;31.63;;;9.90;;
54831;SDS011;40730;53.068;6.572;2023-03-12T14:16:50;40.38;;;10.35;;
54831;SDS011;40730;53.068;6.572;2023-03-12T14:19:22;30.17;;;10.82;;
54831;SDS011;40730;53.068;6.572;2023-03-12T14:21:53;37.47;;;11.68;;
54831;SDS011;40730;53.068;6.572;2023-03-12T14:24:26;39.78;;;11.75;;
54831;SDS011;40730;53.068;6.572;2023-03-12T14:27:10;40.83;;;11.32;;
54831;SDS011;40730;53.068;6.572;2023-03-12T14:29:55;38.42;;;9.75;;
54831;SDS011;40730;53.068;6.572;2023-03-12T14:32:27;28.95;;;9.25;;
54831;SDS011;40730;53.068;6.572;2023-03-12T14:35:15;43.47;;;11.93;;
54831;SDS011;40730;53.068;6.572;2023-03-12T14:37:42;44.13;;;8.73;;
54831;SDS011;40730;53.068;6.572;2023-03-12T14:40:25;31.73;;;8.10;;
54831;SDS011;40730;53.068;6.572;2023-03-12T14:43:00;38.95;;;7.10;;
54831;SDS011;40730;53.068;6.572;2023-03-12T14:45:26;40.35;;;8.52;;
54831;SDS011;40730;53.068;6.572;2023-03-12T14:47:53;37.40;;;8.10;;
54831;SDS011;40730;53.068;6.572;2023-03-12T14:55:48;50.55;;;10.93;;
54831;SDS011;40730;53.068;6.572;2023-03-12T14:58:23;48.78;;;9.75;;
54831;SDS011;40730;53.068;6.572;2023-03-12T15:01:00;36.58;;;9.15;;
54831;SDS011;40730;53.068;6.572;2023-03-12T15:03:29;42.75;;;9.15;;
54831;SDS011;40730;53.068;6.572;2023-03-12T15:05:57;41.78;;;8.57;;
54831;SDS011;40730;53.068;6.572;2023-03-12T15:08:23;48.83;;;8.75;;
54831;SDS011;40730;53.068;6.572;2023-03-12T15:10:52;43.35;;;7.57;;
54831;SDS011;40730;53.068;6.572;2023-03-12T15:13:20;41.30;;;6.85;;
54831;SDS011;40730;53.068;6.572;2023-03-12T15:15:54;39.08;;;7.13;;
54831;SDS011;40730;53.068;6.572;2023-03-12T15:18:24;36.95;;;7.15;;
54831;SDS011;40730;53.068;6.572;2023-03-12T15:20:52;38.95;;;7.38;;
54831;SDS011;40730;53.068;6.572;2023-03-12T15:23:20;39.83;;;5.80;;
54831;SDS011;40730;53.068;6.572;2023-03-12T15:25:47;37.22;;;5.15;;
54831;SDS011;40730;53.068;6.572;2023-03-12T15:28:31;35.90;;;5.65;;
54831;SDS011;40730;53.068;6.572;2023-03-12T15:31:13;37.47;;;5.90;;
54831;SDS011;40730;53.068;6.572;2023-03-12T15:33:41;38.92;;;6.10;;
54831;SDS011;40730;53.068;6.572;2023-03-12T15:38:48;38.88;;;6.00;;
54831;SDS011;40730;53.068;6.572;2023-03-12T15:41:20;33.70;;;4.80;;
54831;SDS011;40730;53.068;6.572;2023-03-12T15:43:53;44.65;;;5.70;;
54831;SDS011;40730;53.068;6.572;2023-03-12T15:46:21;46.60;;;6.03;;
54831;SDS011;40730;53.068;6.572;2023-03-12T15:48:52;38.30;;;5.72;;
54831;SDS011;40730;53.068;6.572;2023-03-12T15:51:31;39.03;;;6.10;;
54831;SDS011;40730;53.068;6.572;2023-03-12T15:54:19;43.30;;;5.65;;
54831;SDS011;40730;53.068;6.572;2023-03-12T15:56:49;33.03;;;5.90;;
54831;SDS011;40730;53.068;6.572;2023-03-12T16:01:43;39.63;;;5.40;;
54831;SDS011;40730;53.068;6.572;2023-03-12T16:04:17;43.60;;;5.57;;
54831;SDS011;40730;53.068;6.572;2023-03-12T16:06:44;37.38;;;5.38;;
54831;SDS011;40730;53.068;6.572;2023-03-12T16:09:17;32.20;;;4.90;;
54831;SDS011;40730;53.068;6.572;2023-03-12T16:11:50;40.35;;;5.95;;
54831;SDS011;40730;53.068;6.572;2023-03-12T16:16:49;41.35;;;5.95;;
54831;SDS011;40730;53.068;6.572;2023-03-12T16:19:19;37.35;;;6.28;;
54831;SDS011;40730;53.068;6.572;2023-03-12T16:21:46;36.75;;;5.25;;
54831;SDS011;40730;53.068;6.572;2023-03-12T16:24:12;36.10;;;5.63;;
54831;SDS011;40730;53.068;6.572;2023-03-12T16:29:17;41.08;;;5.93;;
54831;SDS011;40730;53.068;6.572;2023-03-12T16:31:53;37.92;;;4.75;;
54831;SDS011;40730;53.068;6.572;2023-03-12T16:34:19;53.60;;;6.82;;
54831;SDS011;40730;53.068;6.572;2023-03-12T16:36:45;37.33;;;6.05;;
54831;SDS011;40730;53.068;6.572;2023-03-12T16:39:11;47.22;;;5.38;;
54831;SDS011;40730;53.068;6.572;2023-03-12T16:41:36;37.92;;;6.93;;
54831;SDS011;40730;53.068;6.572;2023-03-12T16:44:03;53.58;;;6.75;;
54831;SDS011;40730;53.068;6.572;2023-03-12T16:46:31;49.88;;;7.53;;
54831;SDS011;40730;53.068;6.572;2023-03-12T16:48:56;35.05;;;5.30;;